sensor_id;sensor_type;location;lat;lon;timestamp;P1;durP1;ratioP1;P2;durP2;ratioP2
20306;SDS011;10312;52.434;13.206;2022-10-16T00:01:10;5.75;;;2.10;;
20306;SDS011;10312;52.434;13.206;2022-10-16T00:03:39;4.20;;;2.00;;
20306;SDS011;10312;52.434;13.206;2022-10-16T00:06:09;2.58;;;1.90;;
20306;SDS011;10312;52.434;13.206;2022-10-16T00:08:37;4.43;;;2.00;;
20306;SDS011;10312;52.434;13.206;2022-10-16T00:11:23;2.75;;;1.80;;
20306;SDS011;10312;52.434;13.206;2022-10-16T00:14:13;1.90;;;1.55;;
20306;SDS011;10312;52.434;13.206;2022-10-16T00:16:41;2.65;;;1.70;;
20306;SDS011;10312;52.434;13.206;2022-10-16T00:19:08;2.42;;;1.75;;
20306;SDS011;10312;52.434;13.206;2022-10-16T00:21:35;3.47;;;2.10;;
20306;SDS011;10312;52.434;13.206;2022-10-16T00:24:05;3.80;;;1.98;;
20306;SDS011;10312;52.434;13.206;2022-10-16T00:26:34;2.72;;;1.70;;
20306;SDS011;10312;52.434;13.206;2022-10-16T00:29:03;3.03;;;2.13;;
20306;SDS011;10312;52.434;13.206;2022-10-16T00:31:30;3.03;;;1.85;;
20306;SDS011;10312;52.434;13.206;2022-10-16T00:33:56;2.97;;;1.80;;
20306;SDS011;10312;52.434;13.206;2022-10-16T00:36:24;4.40;;;1.88;;
20306;SDS011;10312;52.434;13.206;2022-10-16T00:38:52;2.22;;;1.70;;
20306;SDS011;10312;52.434;13.206;2022-10-16T00:41:21;2.22;;;1.48;;
20306;SDS011;10312;52.434;13.206;2022-10-16T00:51:34;2.05;;;1.58;;
20306;SDS011;10312;52.434;13.206;2022-10-16T00:54:04;2.47;;;1.40;;
20306;SDS011;10312;52.434;13.206;2022-10-16T00:56:34;1.75;;;1.30;;
20306;SDS011;10312;52.434;13.206;2022-10-16T00:59:01;2.35;;;1.30;;
20306;SDS011;10312;52.434;13.206;2022-10-16T01:01:30;1.42;;;1.10;;
20306;SDS011;10312;52.434;13.206;2022-10-16T01:03:56;3.35;;;1.20;;
20306;SDS011;10312;52.434;13.206;2022-10-16T01:07:09;2.08;;;1.33;;
20306;SDS011;10312;52.434;13.206;2022-10-16T01:09:23;3.20;;;1.02;;
20306;SDS011;10312;52.434;13.206;2022-10-16T01:11:57;2.97;;;1.52;;
20306;SDS011;10312;52.434;13.206;2022-10-16T01:17:12;4.32;;;1.40;;
20306;SDS011;10312;52.434;13.206;2022-10-16T01:19:54;1.85;;;1.10;;
20306;SDS011;10312;52.434;13.206;2022-10-16T01:28:38;1.73;;;1.25;;
20306;SDS011;10312;52.434;13.206;2022-10-16T01:31:08;2.45;;;1.20;;
20306;SDS011;10312;52.434;13.206;2022-10-16T01:33:38;1.38;;;1.08;;
20306;SDS011;10312;52.434;13.206;2022-10-16T01:36:08;2.55;;;1.20;;
20306;SDS011;10312;52.434;13.206;2022-10-16T01:38:38;1.58;;;1.05;;
20306;SDS011;10312;52.434;13.206;2022-10-16T01:41:25;3.65;;;1.40;;
20306;SDS011;10312;52.434;13.206;2022-10-16T01:43:57;1.92;;;1.30;;
20306;SDS011;10312;52.434;13.206;2022-10-16T01:46:28;2.10;;;1.55;;
20306;SDS011;10312;52.434;13.206;2022-10-16T01:48:56;1.92;;;1.30;;
20306;SDS011;10312;52.434;13.206;2022-10-16T01:51:24;3.40;;;1.38;;
20306;SDS011;10312;52.434;13.206;2022-10-16T01:53:52;2.65;;;1.08;;
20306;SDS011;10312;52.434;13.206;2022-10-16T01:56:20;1.98;;;1.00;;
20306;SDS011;10312;52.434;13.206;2022-10-16T01:58:59;2.63;;;1.30;;
20306;SDS011;10312;52.434;13.206;2022-10-16T02:01:29;1.55;;;1.15;;
20306;SDS011;10312;52.434;13.206;2022-10-16T02:04:00;2.55;;;1.40;;
20306;SDS011;10312;52.434;13.206;2022-10-16T02:06:30;4.20;;;1.15;;
20306;SDS011;10312;52.434;13.206;2022-10-16T02:08:56;2.70;;;1.30;;
20306;SDS011;10312;52.434;13.206;2022-10-16T02:11:23;3.15;;;1.30;;
20306;SDS011;10312;52.434;13.206;2022-10-16T02:13:58;4.32;;;1.38;;
20306;SDS011;10312;52.434;13.206;2022-10-16T02:16:35;1.98;;;1.30;;
20306;SDS011;10312;52.434;13.206;2022-10-16T02:19:02;2.17;;;1.17;;
20306;SDS011;10312;52.434;13.206;2022-10-16T02:21:33;5.97;;;1.40;;
20306;SDS011;10312;52.434;13.206;2022-10-16T02:24:19;2.10;;;1.23;;
20306;SDS011;10312;52.434;13.206;2022-10-16T02:27:01;1.80;;;1.27;;
20306;SDS011;10312;52.434;13.206;2022-10-16T02:29:31;3.95;;;1.42;;
20306;SDS011;10312;52.434;13.206;2022-10-16T02:32:00;2.25;;;1.20;;
20306;SDS011;10312;52.434;13.206;2022-10-16T02:34:29;1.80;;;1.17;;
20306;SDS011;10312;52.434;13.206;2022-10-16T02:36:56;1.75;;;1.30;;
20306;SDS011;10312;52.434;13.206;2022-10-16T02:39:24;1.95;;;1.13;;
20306;SDS011;10312;52.434;13.206;2022-10-16T02:41:51;2.33;;;1.40;;
20306;SDS011;10312;52.434;13.206;2022-10-16T02:44:17;2.17;;;1.20;;
20306;SDS011;10312;52.434;13.206;2022-10-16T02:46:44;1.40;;;1.20;;
20306;SDS011;10312;52.434;13.206;2022-10-16T02:49:10;1.80;;;1.25;;
20306;SDS011;10312;52.434;13.206;2022-10-16T02:51:37;2.67;;;1.10;;
20306;SDS011;10312;52.434;13.206;2022-10-16T02:54:04;3.45;;;1.17;;
20306;SDS011;10312;52.434;13.206;2022-10-16T02:56:30;1.48;;;1.17;;
20306;SDS011;10312;52.434;13.206;2022-10-16T02:58:57;1.92;;;1.20;;
20306;SDS011;10312;52.434;13.206;2022-10-16T03:01:24;2.17;;;0.90;;
20306;SDS011;10312;52.434;13.206;2022-10-16T03:03:50;2.22;;;1.42;;
20306;SDS011;10312;52.434;13.206;2022-10-16T03:06:17;2.85;;;1.20;;
20306;SDS011;10312;52.434;13.206;2022-10-16T03:08:44;2.03;;;1.10;;
20306;SDS011;10312;52.434;13.206;2022-10-16T03:11:10;2.75;;;1.30;;
20306;SDS011;10312;52.434;13.206;2022-10-16T03:13:37;2.00;;;1.10;;
20306;SDS011;10312;52.434;13.206;2022-10-16T03:16:03;1.20;;;1.00;;
20306;SDS011;10312;52.434;13.206;2022-10-16T03:18:30;2.75;;;1.00;;
20306;SDS011;10312;52.434;13.206;2022-10-16T03:20:57;2.17;;;0.93;;
20306;SDS011;10312;52.434;13.206;2022-10-16T03:23:23;5.00;;;1.10;;
20306;SDS011;10312;52.434;13.206;2022-10-16T03:25:50;2.15;;;1.20;;
20306;SDS011;10312;52.434;13.206;2022-10-16T03:28:16;2.20;;;1.27;;
20306;SDS011;10312;52.434;13.206;2022-10-16T03:30:43;1.98;;;1.30;;
20306;SDS011;10312;52.434;13.206;2022-10-16T03:33:10;2.17;;;1.10;;
20306;SDS011;10312;52.434;13.206;2022-10-16T03:35:36;1.77;;;1.20;;
20306;SDS011;10312;52.434;13.206;2022-10-16T03:38:03;2.05;;;1.13;;
20306;SDS011;10312;52.434;13.206;2022-10-16T03:40:29;1.98;;;1.05;;
20306;SDS011;10312;52.434;13.206;2022-10-16T03:42:58;3.60;;;1.30;;
20306;SDS011;10312;52.434;13.206;2022-10-16T03:45:25;1.70;;;1.13;;
20306;SDS011;10312;52.434;13.206;2022-10-16T03:47:52;2.00;;;1.13;;
20306;SDS011;10312;52.434;13.206;2022-10-16T03:50:19;2.47;;;1.40;;
20306;SDS011;10312;52.434;13.206;2022-10-16T03:52:45;2.38;;;1.23;;
20306;SDS011;10312;52.434;13.206;2022-10-16T03:55:12;2.70;;;1.20;;
20306;SDS011;10312;52.434;13.206;2022-10-16T03:57:38;1.85;;;1.30;;
20306;SDS011;10312;52.434;13.206;2022-10-16T04:00:05;1.70;;;1.20;;
20306;SDS011;10312;52.434;13.206;2022-10-16T04:02:37;4.75;;;1.30;;
20306;SDS011;10312;52.434;13.206;2022-10-16T04:05:03;3.03;;;1.27;;
20306;SDS011;10312;52.434;13.206;2022-10-16T04:07:30;2.50;;;1.58;;
20306;SDS011;10312;52.434;13.206;2022-10-16T04:09:57;3.17;;;1.42;;
20306;SDS011;10312;52.434;13.206;2022-10-16T04:12:25;3.63;;;1.60;;
20306;SDS011;10312;52.434;13.206;2022-10-16T04:14:52;2.35;;;1.50;;
20306;SDS011;10312;52.434;13.206;2022-10-16T04:17:19;1.88;;;1.20;;
20306;SDS011;10312;52.434;13.206;2022-10-16T04:19:45;2.33;;;1.38;;
20306;SDS011;10312;52.434;13.206;2022-10-16T04:22:12;2.38;;;1.50;;
20306;SDS011;10312;52.434;13.206;2022-10-16T04:24:39;2.58;;;1.30;;
20306;SDS011;10312;52.434;13.206;2022-10-16T04:27:06;2.38;;;1.30;;
20306;SDS011;10312;52.434;13.206;2022-10-16T04:29:32;1.83;;;1.13;;
20306;SDS011;10312;52.434;13.206;2022-10-16T04:31:59;1.23;;;1.00;;
20306;SDS011;10312;52.434;13.206;2022-10-16T04:34:25;1.38;;;1.20;;
20306;SDS011;10312;52.434;13.206;2022-10-16T04:36:52;2.42;;;1.20;;
20306;SDS011;10312;52.434;13.206;2022-10-16T04:39:19;2.05;;;1.35;;
20306;SDS011;10312;52.434;13.206;2022-10-16T04:41:45;2.58;;;1.35;;
20306;SDS011;10312;52.434;13.206;2022-10-16T04:44:12;1.52;;;1.20;;
20306;SDS011;10312;52.434;13.206;2022-10-16T04:46:38;4.10;;;1.40;;
20306;SDS011;10312;52.434;13.206;2022-10-16T04:49:05;2.60;;;1.48;;
20306;SDS011;10312;52.434;13.206;2022-10-16T04:51:31;4.70;;;1.80;;
20306;SDS011;10312;52.434;13.206;2022-10-16T04:53:58;4.80;;;1.80;;
20306;SDS011;10312;52.434;13.206;2022-10-16T04:56:25;1.55;;;1.33;;
20306;SDS011;10312;52.434;13.206;2022-10-16T04:58:51;3.22;;;1.20;;
20306;SDS011;10312;52.434;13.206;2022-10-16T05:01:18;1.90;;;1.30;;
20306;SDS011;10312;52.434;13.206;2022-10-16T05:03:44;1.88;;;1.10;;
20306;SDS011;10312;52.434;13.206;2022-10-16T05:06:11;2.17;;;1.20;;
20306;SDS011;10312;52.434;13.206;2022-10-16T05:08:37;1.92;;;1.20;;
20306;SDS011;10312;52.434;13.206;2022-10-16T05:11:04;2.20;;;1.00;;
20306;SDS011;10312;52.434;13.206;2022-10-16T05:13:30;3.00;;;1.42;;
20306;SDS011;10312;52.434;13.206;2022-10-16T05:15:57;2.45;;;1.55;;
20306;SDS011;10312;52.434;13.206;2022-10-16T05:18:24;1.38;;;1.17;;
20306;SDS011;10312;52.434;13.206;2022-10-16T05:20:50;1.55;;;1.00;;
20306;SDS011;10312;52.434;13.206;2022-10-16T05:23:17;4.40;;;2.05;;
20306;SDS011;10312;52.434;13.206;2022-10-16T05:25:51;4.68;;;2.33;;
20306;SDS011;10312;52.434;13.206;2022-10-16T05:28:19;2.42;;;1.50;;
20306;SDS011;10312;52.434;13.206;2022-10-16T05:30:45;3.83;;;1.50;;
20306;SDS011;10312;52.434;13.206;2022-10-16T05:33:12;1.85;;;1.20;;
20306;SDS011;10312;52.434;13.206;2022-10-16T05:35:39;2.47;;;1.40;;
20306;SDS011;10312;52.434;13.206;2022-10-16T05:38:06;2.85;;;1.58;;
20306;SDS011;10312;52.434;13.206;2022-10-16T05:40:32;2.72;;;1.10;;
20306;SDS011;10312;52.434;13.206;2022-10-16T05:42:59;2.63;;;1.55;;
20306;SDS011;10312;52.434;13.206;2022-10-16T05:45:26;2.20;;;1.50;;
20306;SDS011;10312;52.434;13.206;2022-10-16T05:47:52;2.25;;;1.48;;
20306;SDS011;10312;52.434;13.206;2022-10-16T05:50:19;3.45;;;1.55;;
20306;SDS011;10312;52.434;13.206;2022-10-16T05:52:46;2.00;;;1.33;;
20306;SDS011;10312;52.434;13.206;2022-10-16T05:55:12;2.13;;;1.33;;
20306;SDS011;10312;52.434;13.206;2022-10-16T05:57:39;1.42;;;1.05;;
20306;SDS011;10312;52.434;13.206;2022-10-16T06:00:06;2.08;;;1.30;;
20306;SDS011;10312;52.434;13.206;2022-10-16T06:02:37;1.95;;;1.30;;
20306;SDS011;10312;52.434;13.206;2022-10-16T06:05:04;3.10;;;1.10;;
20306;SDS011;10312;52.434;13.206;2022-10-16T06:07:33;3.22;;;1.10;;
20306;SDS011;10312;52.434;13.206;2022-10-16T06:10:00;1.63;;;1.00;;
20306;SDS011;10312;52.434;13.206;2022-10-16T06:12:27;5.13;;;3.13;;
20306;SDS011;10312;52.434;13.206;2022-10-16T06:14:53;4.72;;;2.72;;
20306;SDS011;10312;52.434;13.206;2022-10-16T06:17:20;3.60;;;2.10;;
20306;SDS011;10312;52.434;13.206;2022-10-16T06:19:47;2.78;;;1.73;;
20306;SDS011;10312;52.434;13.206;2022-10-16T06:22:13;2.38;;;1.55;;
20306;SDS011;10312;52.434;13.206;2022-10-16T06:24:40;2.83;;;1.67;;
20306;SDS011;10312;52.434;13.206;2022-10-16T06:27:06;2.60;;;1.60;;
20306;SDS011;10312;52.434;13.206;2022-10-16T06:29:33;2.47;;;1.63;;
20306;SDS011;10312;52.434;13.206;2022-10-16T06:31:59;4.53;;;1.38;;
20306;SDS011;10312;52.434;13.206;2022-10-16T06:34:26;3.78;;;2.00;;
20306;SDS011;10312;52.434;13.206;2022-10-16T06:36:52;4.93;;;2.38;;
20306;SDS011;10312;52.434;13.206;2022-10-16T06:39:19;2.75;;;1.92;;
20306;SDS011;10312;52.434;13.206;2022-10-16T06:41:46;4.55;;;1.35;;
20306;SDS011;10312;52.434;13.206;2022-10-16T06:44:14;3.08;;;1.70;;
20306;SDS011;10312;52.434;13.206;2022-10-16T06:46:41;2.08;;;1.63;;
20306;SDS011;10312;52.434;13.206;2022-10-16T06:49:07;2.10;;;1.40;;
20306;SDS011;10312;52.434;13.206;2022-10-16T06:51:34;2.15;;;1.50;;
20306;SDS011;10312;52.434;13.206;2022-10-16T06:54:08;4.10;;;1.60;;
20306;SDS011;10312;52.434;13.206;2022-10-16T06:56:35;1.92;;;1.55;;
20306;SDS011;10312;52.434;13.206;2022-10-16T06:59:02;1.58;;;1.45;;
20306;SDS011;10312;52.434;13.206;2022-10-16T07:01:29;2.58;;;1.73;;
20306;SDS011;10312;52.434;13.206;2022-10-16T07:03:55;1.50;;;1.30;;
20306;SDS011;10312;52.434;13.206;2022-10-16T07:06:23;4.00;;;1.55;;
20306;SDS011;10312;52.434;13.206;2022-10-16T07:08:51;1.55;;;1.17;;
20306;SDS011;10312;52.434;13.206;2022-10-16T07:11:19;6.80;;;1.58;;
20306;SDS011;10312;52.434;13.206;2022-10-16T07:13:47;2.28;;;1.70;;
20306;SDS011;10312;52.434;13.206;2022-10-16T07:16:21;4.18;;;1.63;;
20306;SDS011;10312;52.434;13.206;2022-10-16T07:18:52;2.50;;;1.42;;
20306;SDS011;10312;52.434;13.206;2022-10-16T07:21:26;5.93;;;1.30;;
20306;SDS011;10312;52.434;13.206;2022-10-16T07:23:58;1.88;;;1.20;;
20306;SDS011;10312;52.434;13.206;2022-10-16T07:26:25;3.40;;;1.75;;
20306;SDS011;10312;52.434;13.206;2022-10-16T07:28:53;2.83;;;1.50;;
20306;SDS011;10312;52.434;13.206;2022-10-16T07:31:20;3.97;;;1.48;;
20306;SDS011;10312;52.434;13.206;2022-10-16T07:33:47;1.75;;;1.10;;
20306;SDS011;10312;52.434;13.206;2022-10-16T07:36:15;5.13;;;1.60;;
20306;SDS011;10312;52.434;13.206;2022-10-16T07:38:42;1.95;;;0.95;;
20306;SDS011;10312;52.434;13.206;2022-10-16T07:41:11;2.00;;;1.20;;
20306;SDS011;10312;52.434;13.206;2022-10-16T07:43:39;1.80;;;1.15;;
20306;SDS011;10312;52.434;13.206;2022-10-16T07:46:05;1.75;;;1.15;;
20306;SDS011;10312;52.434;13.206;2022-10-16T07:48:33;2.25;;;0.90;;
20306;SDS011;10312;52.434;13.206;2022-10-16T07:51:01;2.55;;;1.20;;
20306;SDS011;10312;52.434;13.206;2022-10-16T07:53:29;1.20;;;0.90;;
20306;SDS011;10312;52.434;13.206;2022-10-16T07:55:57;2.05;;;1.30;;
20306;SDS011;10312;52.434;13.206;2022-10-16T07:58:27;1.33;;;1.08;;
20306;SDS011;10312;52.434;13.206;2022-10-16T08:00:55;5.20;;;1.20;;
20306;SDS011;10312;52.434;13.206;2022-10-16T08:03:23;2.97;;;1.40;;
20306;SDS011;10312;52.434;13.206;2022-10-16T08:05:50;1.27;;;1.02;;
20306;SDS011;10312;52.434;13.206;2022-10-16T08:08:16;2.40;;;1.02;;
20306;SDS011;10312;52.434;13.206;2022-10-16T08:10:44;3.63;;;0.93;;
20306;SDS011;10312;52.434;13.206;2022-10-16T08:13:11;1.60;;;0.93;;
20306;SDS011;10312;52.434;13.206;2022-10-16T08:15:39;2.70;;;1.10;;
20306;SDS011;10312;52.434;13.206;2022-10-16T08:18:05;1.80;;;1.20;;
20306;SDS011;10312;52.434;13.206;2022-10-16T08:20:32;1.98;;;0.90;;
20306;SDS011;10312;52.434;13.206;2022-10-16T08:22:59;2.00;;;1.00;;
20306;SDS011;10312;52.434;13.206;2022-10-16T08:25:27;2.90;;;1.20;;
20306;SDS011;10312;52.434;13.206;2022-10-16T08:27:53;3.00;;;0.85;;
20306;SDS011;10312;52.434;13.206;2022-10-16T08:30:20;1.70;;;0.82;;
20306;SDS011;10312;52.434;13.206;2022-10-16T08:32:48;3.22;;;1.30;;
20306;SDS011;10312;52.434;13.206;2022-10-16T08:35:15;1.75;;;0.95;;
20306;SDS011;10312;52.434;13.206;2022-10-16T08:37:42;2.72;;;1.00;;
20306;SDS011;10312;52.434;13.206;2022-10-16T08:40:42;3.15;;;1.10;;
20306;SDS011;10312;52.434;13.206;2022-10-16T08:43:19;3.38;;;0.90;;
20306;SDS011;10312;52.434;13.206;2022-10-16T08:45:59;3.45;;;0.90;;
20306;SDS011;10312;52.434;13.206;2022-10-16T08:48:48;2.45;;;0.95;;
20306;SDS011;10312;52.434;13.206;2022-10-16T08:51:24;1.23;;;0.80;;
20306;SDS011;10312;52.434;13.206;2022-10-16T08:53:56;1.17;;;0.82;;
20306;SDS011;10312;52.434;13.206;2022-10-16T08:56:24;1.92;;;0.90;;
20306;SDS011;10312;52.434;13.206;2022-10-16T08:58:52;2.13;;;0.75;;
20306;SDS011;10312;52.434;13.206;2022-10-16T09:01:32;3.13;;;1.08;;
20306;SDS011;10312;52.434;13.206;2022-10-16T09:04:20;1.48;;;0.77;;
20306;SDS011;10312;52.434;13.206;2022-10-16T09:07:02;3.47;;;0.82;;
20306;SDS011;10312;52.434;13.206;2022-10-16T09:09:50;1.13;;;0.60;;
20306;SDS011;10312;52.434;13.206;2022-10-16T09:12:32;3.42;;;0.93;;
20306;SDS011;10312;52.434;13.206;2022-10-16T09:17:51;0.93;;;0.70;;
20306;SDS011;10312;52.434;13.206;2022-10-16T09:23:08;0.82;;;0.70;;
20306;SDS011;10312;52.434;13.206;2022-10-16T09:25:39;1.73;;;0.52;;
20306;SDS011;10312;52.434;13.206;2022-10-16T09:28:09;1.88;;;0.90;;
20306;SDS011;10312;52.434;13.206;2022-10-16T09:30:37;1.05;;;0.60;;
20306;SDS011;10312;52.434;13.206;2022-10-16T09:33:04;3.92;;;0.82;;
20306;SDS011;10312;52.434;13.206;2022-10-16T09:35:36;0.75;;;0.50;;
20306;SDS011;10312;52.434;13.206;2022-10-16T09:38:04;3.90;;;0.70;;
20306;SDS011;10312;52.434;13.206;2022-10-16T09:40:38;1.30;;;0.60;;
20306;SDS011;10312;52.434;13.206;2022-10-16T09:43:15;0.40;;;0.40;;
20306;SDS011;10312;52.434;13.206;2022-10-16T09:45:53;1.05;;;0.65;;
20306;SDS011;10312;52.434;13.206;2022-10-16T09:48:21;0.68;;;0.45;;
20306;SDS011;10312;52.434;13.206;2022-10-16T09:50:55;2.70;;;0.70;;
20306;SDS011;10312;52.434;13.206;2022-10-16T09:53:22;2.42;;;0.60;;
20306;SDS011;10312;52.434;13.206;2022-10-16T09:55:50;2.90;;;0.60;;
20306;SDS011;10312;52.434;13.206;2022-10-16T09:58:17;1.63;;;0.60;;
20306;SDS011;10312;52.434;13.206;2022-10-16T10:00:53;0.80;;;0.50;;
20306;SDS011;10312;52.434;13.206;2022-10-16T10:03:33;1.30;;;0.60;;
20306;SDS011;10312;52.434;13.206;2022-10-16T10:06:03;5.28;;;0.70;;
20306;SDS011;10312;52.434;13.206;2022-10-16T10:08:33;1.90;;;0.70;;
20306;SDS011;10312;52.434;13.206;2022-10-16T10:11:00;2.15;;;0.70;;
20306;SDS011;10312;52.434;13.206;2022-10-16T10:13:27;2.45;;;0.60;;
20306;SDS011;10312;52.434;13.206;2022-10-16T10:15:54;1.35;;;0.60;;
20306;SDS011;10312;52.434;13.206;2022-10-16T10:18:21;0.90;;;0.50;;
20306;SDS011;10312;52.434;13.206;2022-10-16T10:21:00;1.05;;;0.47;;
20306;SDS011;10312;52.434;13.206;2022-10-16T10:23:27;3.13;;;0.50;;
20306;SDS011;10312;52.434;13.206;2022-10-16T10:26:08;0.73;;;0.40;;
20306;SDS011;10312;52.434;13.206;2022-10-16T10:28:44;0.88;;;0.40;;
20306;SDS011;10312;52.434;13.206;2022-10-16T10:34:39;1.90;;;0.50;;
20306;SDS011;10312;52.434;13.206;2022-10-16T10:39:55;1.58;;;0.50;;
20306;SDS011;10312;52.434;13.206;2022-10-16T10:42:33;4.45;;;0.90;;
20306;SDS011;10312;52.434;13.206;2022-10-16T10:50:52;1.92;;;0.50;;
20306;SDS011;10312;52.434;13.206;2022-10-16T10:59:09;2.08;;;0.60;;
20306;SDS011;10312;52.434;13.206;2022-10-16T11:07:24;2.15;;;0.68;;
20306;SDS011;10312;52.434;13.206;2022-10-16T11:09:54;0.98;;;0.50;;
20306;SDS011;10312;52.434;13.206;2022-10-16T11:12:25;2.83;;;0.50;;
20306;SDS011;10312;52.434;13.206;2022-10-16T11:14:57;1.80;;;0.45;;
20306;SDS011;10312;52.434;13.206;2022-10-16T11:17:35;2.13;;;0.50;;
20306;SDS011;10312;52.434;13.206;2022-10-16T11:22:57;1.55;;;0.30;;
20306;SDS011;10312;52.434;13.206;2022-10-16T11:25:27;0.95;;;0.50;;
20306;SDS011;10312;52.434;13.206;2022-10-16T11:27:57;1.15;;;0.40;;
20306;SDS011;10312;52.434;13.206;2022-10-16T11:30:28;0.68;;;0.47;;
20306;SDS011;10312;52.434;13.206;2022-10-16T11:38:02;1.45;;;0.60;;
20306;SDS011;10312;52.434;13.206;2022-10-16T11:40:33;4.90;;;0.40;;
20306;SDS011;10312;52.434;13.206;2022-10-16T11:43:06;0.70;;;0.40;;
20306;SDS011;10312;52.434;13.206;2022-10-16T11:48:21;2.38;;;0.40;;
20306;SDS011;10312;52.434;13.206;2022-10-16T11:50:56;2.85;;;0.40;;
20306;SDS011;10312;52.434;13.206;2022-10-16T11:53:37;0.47;;;0.40;;
20306;SDS011;10312;52.434;13.206;2022-10-16T11:56:11;1.38;;;0.43;;
20306;SDS011;10312;52.434;13.206;2022-10-16T12:07:06;0.38;;;0.30;;
20306;SDS011;10312;52.434;13.206;2022-10-16T12:09:39;1.00;;;0.38;;
20306;SDS011;10312;52.434;13.206;2022-10-16T12:12:26;0.88;;;0.40;;
20306;SDS011;10312;52.434;13.206;2022-10-16T12:18:20;2.72;;;0.68;;
20306;SDS011;10312;52.434;13.206;2022-10-16T12:20:59;0.98;;;0.50;;
20306;SDS011;10312;52.434;13.206;2022-10-16T12:23:32;2.05;;;0.40;;
20306;SDS011;10312;52.434;13.206;2022-10-16T12:25:59;0.80;;;0.30;;
20306;SDS011;10312;52.434;13.206;2022-10-16T12:28:29;0.73;;;0.40;;
20306;SDS011;10312;52.434;13.206;2022-10-16T12:31:05;1.52;;;0.55;;
20306;SDS011;10312;52.434;13.206;2022-10-16T12:33:35;4.95;;;0.85;;
20306;SDS011;10312;52.434;13.206;2022-10-16T12:36:03;1.40;;;0.60;;
20306;SDS011;10312;52.434;13.206;2022-10-16T12:38:51;1.73;;;0.60;;
20306;SDS011;10312;52.434;13.206;2022-10-16T12:41:25;0.73;;;0.40;;
20306;SDS011;10312;52.434;13.206;2022-10-16T12:43:56;1.73;;;0.57;;
20306;SDS011;10312;52.434;13.206;2022-10-16T12:51:38;0.65;;;0.30;;
20306;SDS011;10312;52.434;13.206;2022-10-16T12:56:58;0.57;;;0.40;;
20306;SDS011;10312;52.434;13.206;2022-10-16T12:59:48;0.68;;;0.38;;
20306;SDS011;10312;52.434;13.206;2022-10-16T13:11:09;2.00;;;0.38;;
20306;SDS011;10312;52.434;13.206;2022-10-16T13:13:53;2.55;;;0.30;;
20306;SDS011;10312;52.434;13.206;2022-10-16T13:19:18;2.38;;;0.70;;
20306;SDS011;10312;52.434;13.206;2022-10-16T13:24:56;2.03;;;0.57;;
20306;SDS011;10312;52.434;13.206;2022-10-16T13:27:48;0.47;;;0.30;;
20306;SDS011;10312;52.434;13.206;2022-10-16T13:30:21;0.52;;;0.20;;
20306;SDS011;10312;52.434;13.206;2022-10-16T13:33:02;0.68;;;0.32;;
20306;SDS011;10312;52.434;13.206;2022-10-16T13:35:32;0.63;;;0.35;;
20306;SDS011;10312;52.434;13.206;2022-10-16T13:38:11;2.65;;;0.50;;
20306;SDS011;10312;52.434;13.206;2022-10-16T13:40:56;2.28;;;0.32;;
20306;SDS011;10312;52.434;13.206;2022-10-16T13:43:24;2.30;;;0.40;;
20306;SDS011;10312;52.434;13.206;2022-10-16T13:46:00;2.13;;;0.60;;
20306;SDS011;10312;52.434;13.206;2022-10-16T13:48:29;2.22;;;0.40;;
20306;SDS011;10312;52.434;13.206;2022-10-16T13:51:04;1.33;;;0.40;;
20306;SDS011;10312;52.434;13.206;2022-10-16T13:53:42;2.70;;;0.40;;
20306;SDS011;10312;52.434;13.206;2022-10-16T13:56:11;2.55;;;0.30;;
20306;SDS011;10312;52.434;13.206;2022-10-16T13:58:42;4.10;;;0.40;;
20306;SDS011;10312;52.434;13.206;2022-10-16T14:01:19;1.85;;;0.50;;
20306;SDS011;10312;52.434;13.206;2022-10-16T14:03:59;0.60;;;0.40;;
20306;SDS011;10312;52.434;13.206;2022-10-16T14:06:36;0.65;;;0.40;;
20306;SDS011;10312;52.434;13.206;2022-10-16T14:09:16;0.70;;;0.40;;
20306;SDS011;10312;52.434;13.206;2022-10-16T14:11:56;1.98;;;0.40;;
20306;SDS011;10312;52.434;13.206;2022-10-16T14:14:24;1.45;;;0.50;;
20306;SDS011;10312;52.434;13.206;2022-10-16T14:16:51;0.90;;;0.40;;
20306;SDS011;10312;52.434;13.206;2022-10-16T14:19:21;5.15;;;0.40;;
20306;SDS011;10312;52.434;13.206;2022-10-16T14:21:53;2.03;;;0.40;;
20306;SDS011;10312;52.434;13.206;2022-10-16T14:26:57;0.70;;;0.30;;
20306;SDS011;10312;52.434;13.206;2022-10-16T14:29:24;0.73;;;0.35;;
20306;SDS011;10312;52.434;13.206;2022-10-16T14:31:56;1.73;;;0.60;;
20306;SDS011;10312;52.434;13.206;2022-10-16T14:34:27;0.75;;;0.40;;
20306;SDS011;10312;52.434;13.206;2022-10-16T14:37:09;1.48;;;0.50;;
20306;SDS011;10312;52.434;13.206;2022-10-16T14:39:48;2.10;;;0.43;;
20306;SDS011;10312;52.434;13.206;2022-10-16T14:42:16;0.60;;;0.40;;
20306;SDS011;10312;52.434;13.206;2022-10-16T14:44:46;1.15;;;0.40;;
20306;SDS011;10312;52.434;13.206;2022-10-16T14:47:13;0.68;;;0.43;;
20306;SDS011;10312;52.434;13.206;2022-10-16T14:49:42;0.65;;;0.43;;
20306;SDS011;10312;52.434;13.206;2022-10-16T14:52:12;0.45;;;0.30;;
20306;SDS011;10312;52.434;13.206;2022-10-16T14:54:39;1.83;;;0.60;;
20306;SDS011;10312;52.434;13.206;2022-10-16T14:57:15;1.08;;;0.40;;
20306;SDS011;10312;52.434;13.206;2022-10-16T14:59:43;1.15;;;0.50;;
20306;SDS011;10312;52.434;13.206;2022-10-16T15:02:16;0.60;;;0.30;;
20306;SDS011;10312;52.434;13.206;2022-10-16T15:04:47;1.20;;;0.50;;
20306;SDS011;10312;52.434;13.206;2022-10-16T15:07:14;0.85;;;0.35;;
20306;SDS011;10312;52.434;13.206;2022-10-16T15:09:41;1.10;;;0.40;;
20306;SDS011;10312;52.434;13.206;2022-10-16T15:12:14;2.92;;;0.57;;
20306;SDS011;10312;52.434;13.206;2022-10-16T15:14:42;0.98;;;0.50;;
20306;SDS011;10312;52.434;13.206;2022-10-16T15:17:11;1.08;;;0.63;;
20306;SDS011;10312;52.434;13.206;2022-10-16T15:19:41;1.73;;;0.50;;
20306;SDS011;10312;52.434;13.206;2022-10-16T15:22:09;1.92;;;0.60;;
20306;SDS011;10312;52.434;13.206;2022-10-16T15:24:37;2.25;;;0.60;;
20306;SDS011;10312;52.434;13.206;2022-10-16T15:27:04;1.88;;;0.70;;
20306;SDS011;10312;52.434;13.206;2022-10-16T15:29:30;2.45;;;1.00;;
20306;SDS011;10312;52.434;13.206;2022-10-16T15:31:57;1.27;;;0.80;;
20306;SDS011;10312;52.434;13.206;2022-10-16T15:34:24;3.00;;;0.70;;
20306;SDS011;10312;52.434;13.206;2022-10-16T15:36:50;2.45;;;0.95;;
20306;SDS011;10312;52.434;13.206;2022-10-16T15:39:18;2.30;;;1.08;;
20306;SDS011;10312;52.434;13.206;2022-10-16T15:41:46;4.07;;;1.27;;
20306;SDS011;10312;52.434;13.206;2022-10-16T15:44:17;6.30;;;2.45;;
20306;SDS011;10312;52.434;13.206;2022-10-16T15:46:44;7.63;;;2.72;;
20306;SDS011;10312;52.434;13.206;2022-10-16T15:49:11;5.93;;;2.33;;
20306;SDS011;10312;52.434;13.206;2022-10-16T15:51:39;7.32;;;3.05;;
20306;SDS011;10312;52.434;13.206;2022-10-16T15:54:08;5.47;;;2.63;;
20306;SDS011;10312;52.434;13.206;2022-10-16T15:56:35;8.25;;;3.80;;
20306;SDS011;10312;52.434;13.206;2022-10-16T15:59:04;7.13;;;3.35;;
20306;SDS011;10312;52.434;13.206;2022-10-16T16:01:32;6.03;;;3.00;;
20306;SDS011;10312;52.434;13.206;2022-10-16T16:04:00;4.70;;;2.50;;
20306;SDS011;10312;52.434;13.206;2022-10-16T16:06:32;5.45;;;3.10;;
20306;SDS011;10312;52.434;13.206;2022-10-16T16:09:01;6.47;;;2.30;;
20306;SDS011;10312;52.434;13.206;2022-10-16T16:11:28;5.53;;;2.45;;
20306;SDS011;10312;52.434;13.206;2022-10-16T16:13:58;7.90;;;2.13;;
20306;SDS011;10312;52.434;13.206;2022-10-16T16:16:24;7.05;;;2.63;;
20306;SDS011;10312;52.434;13.206;2022-10-16T16:18:52;7.20;;;3.42;;
20306;SDS011;10312;52.434;13.206;2022-10-16T16:21:21;7.05;;;3.70;;
20306;SDS011;10312;52.434;13.206;2022-10-16T16:23:49;6.15;;;3.50;;